This is the latest recevied weather packets stored in our database for station/object AE2A-13. If no packets are shown the sender has not sent any weather packets the latest 10 day(s).
| Time | Temp. | Humidity | Pressure | Rain* | Wind** | Luminosity | Snow |
|---|---|---|---|---|---|---|---|
| 1777980304 | 16.67° C | 100% | 1016.3 hPa | 0 mm | - | - | - |
| 1777977304 | 15.56° C | 96% | 1016.1 hPa | 0 mm | - | - | - |
| 1777975804 | 15.56° C | 96% | 1016 hPa | 0 mm | - | - | - |
| 1777974603 | 16.11° C | 96% | 1015.8 hPa | 0 mm | - | - | - |
| 1777973404 | 16.11° C | 96% | 1015.6 hPa | 0 mm | - | - | - |
| 1777972804 | 16.11° C | 96% | 1015.6 hPa | 0 mm | - | - | - |
| 1777971604 | 16.11° C | 95% | 1015.6 hPa | 0 mm | - | - | - |
| 1777965603 | 16.67° C | 94% | 1015.6 hPa | 0 mm | - | - | - |
| 1777964404 | 16.67° C | 93% | 1015.9 hPa | 0 mm | - | - | - |
| 1777963204 | 16.67° C | 93% | 1016 hPa | 0 mm | - | - | - |
| 1777961103 | 17.22° C | 92% | 1016.2 hPa | 0 mm | - | - | - |
| 1777957804 | 17.78° C | 89% | 1016.8 hPa | 0 mm | - | - | - |
| 1777957504 | 17.78° C | 90% | 1016.7 hPa | 0 mm | - | - | - |
| 1777957204 | 17.78° C | 90% | 1016.7 hPa | 0 mm | - | - | - |
| 1777955404 | 18.33° C | 89% | 1017 hPa | 0 mm | - | - | - |
| 1777952704 | 18.33° C | 88% | 1017.5 hPa | 0 mm | - | - | - |
| 1777950604 | 18.89° C | 86% | 1017.5 hPa | 0 mm | - | - | - |
| 1777949404 | 18.89° C | 85% | 1017.7 hPa | 0 mm | - | - | - |
| 1777943403 | 20.56° C | 79% | 1017.1 hPa | 0 mm | - | - | - |
| 1777943103 | 20.56° C | 78% | 1017.2 hPa | 0 mm | - | - | - |
| 1777942804 | 21.11° C | 78% | 1017.2 hPa | 0 mm | - | - | - |
| 1777937703 | 23.33° C | 69% | 1016.4 hPa | 0 mm | - | - | - |
| 1777936503 | 23.89° C | 68% | 1016.4 hPa | 0 mm | - | - | - |
| 1777935603 | 23.89° C | 68% | 1016.4 hPa | 0 mm | - | - | - |
| 1777934404 | 25° C | 66% | 1016.3 hPa | 0 mm | - | - | - |
* Rain latest hour (hover to see other rain measurements)
** Current wind speed in m/s (hover to see current wind gust speed)